Terminal Aerodrome Forecast
Issued by NWS Portland, OR

Home | Current Version | Previous Version | Text Only | Print | Product List | Glossary On
Versions: 1 2 3 4 5 6 7 8 9 10 11 12 13 14 15 16 17 18 19 20 21 22 23 24 25 26 27 28 29 30 31 32 33 34 35 36 37 38 39 40 41 42 43 44 45 46 47
000
FTUS46 KPQR 191137
TAFAST
TAF
KAST 191137Z 1912/2012 13004KT P6SM SCT002
      TEMPO 1912/1915 1SM BR BKN002
     FM191600 33006KT P6SM FEW004
     FM191800 33008KT P6SM SKC
     FM192200 32012G20KT P6SM SKC
     FM200200 33010KT P6SM SKC=

USA.gov is the U.S. government's official web portal to all federal, state and local government web resources and services.